createdAt,value
2019-05-22T00:01:25.380Z,99676.67
2019-05-22T00:04:01.127Z,99675.84
2019-05-22T00:06:36.881Z,99677.04
2019-05-22T00:09:10.656Z,99675.05
2019-05-22T00:11:40.227Z,99672.08
2019-05-22T00:14:10.396Z,99677.77
2019-05-22T00:16:40.208Z,99680.48
2019-05-22T00:19:10.005Z,99689.71
2019-05-22T00:21:40.218Z,99683.55
2019-05-22T00:24:11.123Z,99686.88
2019-05-22T00:26:43.910Z,99691.84
2019-05-22T00:29:13.991Z,99688.36
2019-05-22T00:31:43.469Z,99688.51
2019-05-22T00:34:14.129Z,99691.84
2019-05-22T00:36:43.598Z,99688.30
2019-05-22T00:39:14.487Z,99687.10
2019-05-22T00:41:46.532Z,99688.30
2019-05-22T00:44:17.374Z,99694.70
2019-05-22T00:46:47.943Z,99692.09
2019-05-22T00:49:18.119Z,99685.91
2019-05-22T00:52:07.157Z,99692.67
2019-05-22T00:54:54.883Z,99690.28
2019-05-22T00:57:44.580Z,99692.38
2019-05-22T01:00:35.018Z,99691.22
2019-05-22T01:03:06.736Z,99691.91
2019-05-22T01:05:38.268Z,99692.63
2019-05-22T01:08:07.564Z,99685.64
2019-05-22T01:10:39.042Z,99689.56
2019-05-22T01:13:09.811Z,99696.33
2019-05-22T01:15:40.852Z,99700.70
2019-05-22T01:18:14.228Z,99698.57
2019-05-22T01:20:43.559Z,99698.47
2019-05-22T01:23:18.047Z,99704.41
2019-05-22T01:25:47.901Z,99701.11
2019-05-22T01:28:17.313Z,99699.08
2019-05-22T01:31:05.709Z,99702.88
2019-05-22T01:33:42.597Z,99700.28
2019-05-22T01:36:19.552Z,99696.12
2019-05-22T01:38:49.214Z,99699.34
2019-05-22T01:41:26.039Z,99698.39
2019-05-22T01:43:57.084Z,99700.86
2019-05-22T01:46:28.671Z,99702.84
2019-05-22T01:49:03.238Z,99702.52
2019-05-22T01:51:34.272Z,99704.08
2019-05-22T01:54:05.791Z,99705.13
2019-05-22T01:56:36.323Z,99708.81
2019-05-22T01:59:07.526Z,99705.16
2019-05-22T02:01:37.483Z,99702.33
2019-05-22T02:04:08.080Z,99699.37
2019-05-22T02:06:39.082Z,99704.69
2019-05-22T02:09:31.513Z,99700.17
2019-05-22T02:12:10.425Z,99703.86
2019-05-22T02:14:44.212Z,99703.86
2019-05-22T02:17:13.671Z,99702.33
2019-05-22T02:19:43.022Z,99700.42
2019-05-22T02:22:15.214Z,99698.53
2019-05-22T02:24:44.523Z,99696.63
2019-05-22T02:27:14.161Z,99699.84
2019-05-22T02:29:44.668Z,99701.14
2019-05-22T02:32:14.594Z,99700.42
2019-05-22T02:34:46.201Z,99700.81
2019-05-22T02:37:17.930Z,99705.55
2019-05-22T02:39:47.650Z,99713.11
2019-05-22T02:42:23.139Z,99713.11
2019-05-22T02:44:52.711Z,99717.61
2019-05-22T02:47:25.011Z,99715.00
2019-05-22T02:49:57.262Z,99717.02
2019-05-22T02:52:27.265Z,99720.93
2019-05-22T02:54:56.445Z,99722.48
2019-05-22T02:57:28.240Z,99716.33
2019-05-22T02:59:59.022Z,99719.16
2019-05-22T03:02:28.567Z,99720.34
2019-05-22T03:05:07.143Z,99722.23
2019-05-22T03:07:36.860Z,99727.69
2019-05-22T03:10:07.984Z,99721.53
2019-05-22T03:12:39.010Z,99727.44
2019-05-22T03:15:16.140Z,99730.77
2019-05-22T03:17:47.509Z,99730.41
2019-05-22T03:20:19.527Z,99724.36
2019-05-22T03:25:11.707Z,99725.56
2019-05-22T03:27:44.752Z,99725.45
2019-05-22T03:30:23.750Z,99725.45
2019-05-22T03:32:53.661Z,99726.61
2019-05-22T03:35:26.395Z,99724.72
2019-05-22T03:37:58.999Z,99729.69
2019-05-22T03:40:30.888Z,99735.98
2019-05-22T03:43:09.201Z,99735.12
2019-05-22T03:45:39.910Z,99738.09
2019-05-22T03:48:10.129Z,99737.98
2019-05-22T03:50:40.798Z,99733.01
2019-05-22T03:53:16.925Z,99738.34
2019-05-22T03:55:47.570Z,99739.50
2019-05-22T03:58:17.923Z,99738.58
2019-05-22T04:00:47.602Z,99744.84
2019-05-22T04:03:17.673Z,99746.95
2019-05-22T04:05:48.671Z,99744.60
2019-05-22T04:08:19.490Z,99744.84
2019-05-22T04:10:59.013Z,99743.67
2019-05-22T04:13:28.946Z,99755.64
2019-05-22T04:15:58.582Z,99749.71
2019-05-22T04:18:28.041Z,99748.05
2019-05-22T04:20:58.916Z,99754.45
2019-05-22T04:23:28.265Z,99753.12
2019-05-22T04:25:58.965Z,99755.88
2019-05-22T04:28:30.003Z,99757.39
2019-05-22T04:31:00.179Z,99757.64
2019-05-22T04:33:31.505Z,99762.03
2019-05-22T04:36:02.917Z,99753.73
2019-05-22T04:38:32.688Z,99761.30
2019-05-22T04:41:03.023Z,99760.84
2019-05-22T04:43:34.803Z,99763.19
2019-05-22T04:46:08.345Z,99768.41
2019-05-22T04:48:38.207Z,99767.80
2019-05-22T04:51:29.991Z,99769.83
2019-05-22T04:54:00.434Z,99771.25
2019-05-22T04:56:30.161Z,99772.41
2019-05-22T04:59:01.810Z,99772.05
2019-05-22T05:01:31.179Z,99776.45
2019-05-22T05:04:01.354Z,99784.73
2019-05-22T05:06:33.184Z,99785.46
2019-05-22T05:09:03.888Z,99784.39
2019-05-22T05:11:34.002Z,99785.69
2019-05-22T05:14:03.179Z,99782.70
2019-05-22T05:16:32.437Z,99782.11
2019-05-22T05:19:02.335Z,99785.80
2019-05-22T05:21:31.763Z,99783.67
2019-05-22T05:24:00.962Z,99793.51
2019-05-22T05:26:32.065Z,99791.60
2019-05-22T05:29:01.891Z,99799.86
2019-05-22T05:31:31.078Z,99802.61
2019-05-22T05:34:26.072Z,99802.25
2019-05-22T05:36:55.903Z,99806.77
2019-05-22T05:40:12.119Z,99807.23
2019-05-22T05:42:41.323Z,99805.82
2019-05-22T05:45:13.588Z,99809.12
2019-05-22T05:47:43.422Z,99812.58
2019-05-22T05:50:14.079Z,99814.48
2019-05-22T05:52:44.129Z,99816.96
2019-05-22T05:55:13.629Z,99815.17
2019-05-22T05:58:24.723Z,99811.97
2019-05-22T06:01:00.070Z,99815.79
2019-05-22T06:03:41.617Z,99816.97
2019-05-22T06:07:02.227Z,99823.69
2019-05-22T06:09:33.488Z,99825.36
2019-05-22T06:12:05.814Z,99831.76
2019-05-22T06:14:36.669Z,99831.52
2019-05-22T06:17:47.443Z,99831.63
2019-05-22T06:20:20.348Z,99836.39
2019-05-22T06:23:42.164Z,99840.16
2019-05-22T06:26:15.131Z,99845.38
2019-05-22T06:28:44.826Z,99843.13
2019-05-22T06:31:22.182Z,99846.68
2019-05-22T06:33:52.454Z,99851.78
2019-05-22T06:36:22.435Z,99861.27
2019-05-22T06:39:08.543Z,99857.10
2019-05-22T06:41:39.200Z,99850.47
2019-05-22T06:44:37.605Z,99850.57
2019-05-22T06:47:09.633Z,99855.31
2019-05-22T06:49:51.601Z,99856.02
2019-05-22T06:52:21.365Z,99855.55
2019-05-22T06:54:51.398Z,99855.08
2019-05-22T06:57:28.525Z,99852.25
2019-05-22T07:00:12.977Z,99859.25
2019-05-22T07:02:35.561Z,99861.27
2019-05-22T07:05:07.051Z,99856.39
2019-05-22T07:07:36.533Z,99860.31
2019-05-22T07:10:10.315Z,99860.19
2019-05-22T07:12:40.083Z,99861.70
2019-05-22T07:15:31.290Z,99865.84
2019-05-22T07:18:03.015Z,99867.15
2019-05-22T07:20:35.983Z,99875.83
2019-05-22T07:23:06.861Z,99876.90
2019-05-22T07:25:40.115Z,99868.35
2019-05-22T07:28:10.138Z,99878.53
2019-05-22T07:30:40.632Z,99875.47
2019-05-22T07:33:10.509Z,99882.80
2019-05-22T07:36:04.467Z,99877.95
2019-05-22T07:38:10.748Z,99880.08
2019-05-22T07:40:40.396Z,99881.02
2019-05-22T07:43:09.591Z,99883.62
2019-05-22T07:45:39.249Z,99885.41
2019-05-22T07:48:10.154Z,99890.84
2019-05-22T07:50:48.107Z,99891.68
2019-05-22T07:53:18.856Z,99890.52
2019-05-22T07:55:49.429Z,99894.42
2019-05-22T07:58:18.924Z,99896.56
2019-05-22T08:01:08.206Z,99895.61
2019-05-22T08:03:38.163Z,99897.86
2019-05-22T08:06:08.282Z,99906.62
2019-05-22T08:08:38.424Z,99899.03
2019-05-22T08:11:07.714Z,99900.33
2019-05-22T08:13:37.771Z,99896.90
2019-05-22T08:16:08.528Z,99906.38
2019-05-22T08:18:41.559Z,99901.40
2019-05-22T08:21:11.855Z,99904.83
2019-05-22T08:23:41.213Z,99908.88
2019-05-22T08:26:11.589Z,99909.80
2019-05-22T08:28:41.555Z,99905.30
2019-05-22T08:31:13.099Z,99912.64
2019-05-22T08:33:42.891Z,99907.92
2019-05-22T08:36:12.195Z,99912.08
2019-05-22T08:38:43.884Z,99916.91
2019-05-22T08:41:16.003Z,99920.34
2019-05-22T08:44:14.597Z,99914.78
2019-05-22T08:46:18.141Z,99909.81
2019-05-22T08:48:49.410Z,99916.69
2019-05-22T08:51:19.190Z,99920.61
2019-05-22T08:53:48.992Z,99920.02
2019-05-22T08:56:19.999Z,99922.15
2019-05-22T08:58:49.855Z,99922.98
2019-05-22T09:01:19.073Z,99927.66
2019-05-22T09:03:49.440Z,99929.69
2019-05-22T09:06:18.985Z,99927.80
2019-05-22T09:08:48.318Z,99930.41
2019-05-22T09:11:17.726Z,99932.33
2019-05-22T09:13:46.925Z,99928.39
2019-05-22T09:16:16.617Z,99935.05
2019-05-22T09:18:46.354Z,99934.66
2019-05-22T09:21:16.489Z,99935.70
2019-05-22T09:23:47.259Z,99938.49
2019-05-22T09:26:17.119Z,99943.22
2019-05-22T09:28:47.115Z,99939.08
2019-05-22T09:31:16.297Z,99943.81
2019-05-22T09:33:45.628Z,99944.27
2019-05-22T09:36:14.884Z,99947.13
2019-05-22T09:38:44.184Z,99948.06
2019-05-22T09:41:13.502Z,99938.84
2019-05-22T09:43:42.868Z,99940.72
2019-05-22T09:46:12.126Z,99946.64
2019-05-22T09:48:41.987Z,99949.61
2019-05-22T09:51:11.468Z,99951.27
2019-05-22T09:53:40.961Z,99955.31
2019-05-22T09:56:10.575Z,99952.94
2019-05-22T09:59:48.339Z,99960.53
2019-05-22T10:02:17.572Z,99958.04
2019-05-22T10:04:47.025Z,99965.73
2019-05-22T10:07:16.461Z,99961.00
2019-05-22T10:09:45.972Z,99965.22
2019-05-22T10:12:15.676Z,99968.05
2019-05-22T10:14:45.389Z,99967.47
2019-05-22T10:17:15.573Z,99967.84
2019-05-22T10:19:45.336Z,99968.59
2019-05-22T10:22:15.761Z,99969.17
2019-05-22T10:24:49.887Z,99967.28
2019-05-22T10:27:17.224Z,99966.06
2019-05-22T10:29:46.488Z,99969.56
2019-05-22T10:32:16.059Z,99967.98
2019-05-22T10:34:45.377Z,99970.73
2019-05-22T10:37:14.854Z,99966.54
2019-05-22T10:39:44.244Z,99970.34
2019-05-22T10:42:13.401Z,99976.36
2019-05-22T10:44:42.866Z,99981.42
2019-05-22T10:47:12.009Z,99985.17
2019-05-22T10:49:41.900Z,99979.61
2019-05-22T10:52:11.244Z,99983.59
2019-05-22T10:54:40.684Z,99983.14
2019-05-22T10:57:10.532Z,99983.16
2019-05-22T10:59:40.165Z,99990.05
2019-05-22T11:02:09.622Z,99984.38
2019-05-22T11:04:38.868Z,99985.80
2019-05-22T11:07:09.635Z,99991.85
2019-05-22T11:09:40.300Z,99989.14
2019-05-22T11:12:09.697Z,99995.88
2019-05-22T11:14:39.308Z,99989.30
2019-05-22T11:17:10.010Z,99989.55
2019-05-22T11:19:39.329Z,99997.22
2019-05-22T11:22:09.602Z,99996.52
2019-05-22T11:24:39.240Z,100003.03
2019-05-22T11:27:08.528Z,99993.24
2019-05-22T11:29:37.846Z,99996.76
2019-05-22T11:32:07.502Z,99988.54
2019-05-22T11:34:36.821Z,99994.41
2019-05-22T11:37:06.018Z,99990.04
2019-05-22T11:39:39.849Z,99997.87
2019-05-22T11:42:10.317Z,99996.51
2019-05-22T11:44:40.931Z,100006.04
2019-05-22T11:47:12.090Z,100001.70
2019-05-22T11:49:41.355Z,99993.70
2019-05-22T11:52:12.141Z,99997.42
2019-05-22T11:54:41.749Z,99995.52
2019-05-22T11:57:11.770Z,99994.56
2019-05-22T11:59:40.959Z,99996.36
2019-05-22T12:02:11.833Z,99992.80
2019-05-22T12:04:47.914Z,99988.95
2019-05-22T12:07:12.560Z,99988.49
2019-05-22T12:09:41.899Z,99984.80
2019-05-22T12:12:11.562Z,99987.86
2019-05-22T12:14:40.885Z,99988.17
2019-05-22T12:17:11.538Z,99989.16
2019-05-22T12:19:41.030Z,99982.21
2019-05-22T12:22:10.470Z,99991.68
2019-05-22T12:24:39.628Z,99980.05
2019-05-22T12:27:10.389Z,99983.16
2019-05-22T12:29:39.934Z,99981.86
2019-05-22T12:32:10.397Z,99982.23
2019-05-22T12:34:39.565Z,99986.15
2019-05-22T12:37:09.198Z,99993.36
2019-05-22T12:39:39.739Z,99982.59
2019-05-22T12:42:11.246Z,99989.92
2019-05-22T12:44:40.404Z,99984.87
2019-05-22T12:47:10.015Z,99982.68
2019-05-22T12:49:39.334Z,99967.79
2019-05-22T12:52:09.123Z,99969.16
2019-05-22T12:54:46.923Z,99966.79
2019-05-22T12:57:10.407Z,99965.75
2019-05-22T12:59:39.742Z,99970.52
2019-05-22T13:02:11.026Z,99966.14
2019-05-22T13:04:40.858Z,99961.27
2019-05-22T13:07:10.493Z,99953.97
2019-05-22T13:09:39.901Z,99956.31
2019-05-22T13:12:12.893Z,99961.27
2019-05-22T13:14:42.132Z,99955.36
2019-05-22T13:17:12.612Z,99954.80
2019-05-22T13:19:42.687Z,99956.98
2019-05-22T13:22:15.137Z,99967.28
2019-05-22T13:24:45.015Z,99967.30
2019-05-22T13:27:17.768Z,99967.98
2019-05-22T13:29:48.278Z,99971.67
2019-05-22T13:32:19.944Z,99962.95
2019-05-22T13:34:49.202Z,99962.75
2019-05-22T13:37:18.585Z,99973.25
2019-05-22T13:39:47.764Z,99964.61
2019-05-22T13:42:17.236Z,99971.84
2019-05-22T13:44:47.192Z,99969.34
2019-05-22T13:47:17.237Z,99963.56
2019-05-22T13:49:46.439Z,99967.55
2019-05-22T13:52:16.141Z,99963.92
2019-05-22T13:54:45.919Z,99963.57
2019-05-22T13:57:15.575Z,99957.50
2019-05-22T13:59:45.067Z,99957.04
2019-05-22T14:02:14.797Z,99967.53
2019-05-22T14:04:44.493Z,99964.05
2019-05-22T14:07:14.358Z,99965.13
2019-05-22T14:09:44.055Z,99963.74
2019-05-22T14:12:13.716Z,99954.35
2019-05-22T14:14:43.922Z,99960.78
2019-05-22T14:17:13.183Z,99954.94
2019-05-22T14:19:42.660Z,99962.27
2019-05-22T14:22:11.974Z,99949.05
2019-05-22T14:24:41.148Z,99953.07
2019-05-22T14:27:10.376Z,99952.05
2019-05-22T14:29:40.110Z,99949.94
2019-05-22T14:32:11.377Z,99960.30
2019-05-22T14:34:40.961Z,99963.57
2019-05-22T14:37:15.452Z,99962.94
2019-05-22T14:39:47.331Z,99961.45
2019-05-22T14:42:17.069Z,99953.55
2019-05-22T14:44:46.638Z,99949.33
2019-05-22T14:47:16.733Z,99952.05
2019-05-22T14:49:46.143Z,99955.00
2019-05-22T14:52:15.837Z,99952.38
2019-05-22T14:54:44.983Z,99946.59
2019-05-22T14:57:15.088Z,99945.22
2019-05-22T14:59:44.288Z,99945.84
2019-05-22T15:02:14.132Z,99943.88
2019-05-22T15:04:43.499Z,99943.46
2019-05-22T15:07:13.558Z,99945.11
2019-05-22T15:09:42.896Z,99947.45
2019-05-22T15:12:12.406Z,99942.81
2019-05-22T15:14:41.709Z,99938.03
2019-05-22T15:17:11.585Z,99941.51
2019-05-22T15:19:40.784Z,99941.47
2019-05-22T15:22:10.922Z,99936.89
2019-05-22T15:24:40.309Z,99936.12
2019-05-22T15:27:10.509Z,99942.92
2019-05-22T15:29:39.784Z,99927.98
2019-05-22T15:32:10.577Z,99931.32
2019-05-22T15:34:39.799Z,99936.86
2019-05-22T15:37:11.148Z,99940.45
2019-05-22T15:39:40.820Z,99936.55
2019-05-22T15:42:13.490Z,99930.25
2019-05-22T15:44:42.954Z,99932.59
2019-05-22T15:47:12.150Z,99937.61
2019-05-22T15:49:44.824Z,99937.64
2019-05-22T15:52:16.742Z,99944.27
2019-05-22T15:54:46.325Z,99945.48
2019-05-22T15:57:17.802Z,99938.02
2019-05-22T15:59:47.623Z,99942.81
2019-05-22T16:02:21.284Z,99937.87
2019-05-22T16:04:50.773Z,99933.45
2019-05-22T16:07:20.087Z,99938.48
2019-05-22T16:09:50.086Z,99940.66
2019-05-22T16:12:19.653Z,99936.38
2019-05-22T16:14:49.868Z,99933.32
2019-05-22T16:17:20.818Z,99936.91
2019-05-22T16:19:50.357Z,99938.80
2019-05-22T16:22:19.677Z,99939.61
2019-05-22T16:24:49.210Z,99944.81
2019-05-22T16:27:19.783Z,99937.91
2019-05-22T16:29:49.382Z,99937.55
2019-05-22T16:32:19.142Z,99929.73
2019-05-22T16:34:48.823Z,99931.75
2019-05-22T16:37:18.605Z,99932.08
2019-05-22T16:39:50.503Z,99932.13
2019-05-22T16:42:19.344Z,99925.26
2019-05-22T16:44:49.224Z,99932.25
2019-05-22T16:47:21.673Z,99934.67
2019-05-22T16:49:53.583Z,99932.11
2019-05-22T16:52:25.774Z,99935.23
2019-05-22T16:54:55.170Z,99935.88
2019-05-22T16:57:25.490Z,99925.70
2019-05-22T16:59:55.163Z,99934.84
2019-05-22T17:02:25.868Z,99932.69
2019-05-22T17:04:56.151Z,99934.75
2019-05-22T17:07:28.136Z,99937.67
2019-05-22T17:09:57.231Z,99935.73
2019-05-22T17:12:27.300Z,99933.21
2019-05-22T17:14:56.918Z,99944.14
2019-05-22T17:17:26.247Z,99938.33
2019-05-22T17:19:55.720Z,99932.36
2019-05-22T17:22:26.133Z,99932.86
2019-05-22T17:24:55.631Z,99941.34
2019-05-22T17:27:25.139Z,99938.17
2019-05-22T17:29:55.384Z,99945.74
2019-05-22T17:32:26.557Z,99943.62
2019-05-22T17:34:56.467Z,99943.79
2019-05-22T17:37:26.581Z,99938.75
2019-05-22T17:39:56.027Z,99941.70
2019-05-22T17:42:27.154Z,99940.72
2019-05-22T17:44:57.677Z,99945.11
2019-05-22T17:47:27.801Z,99939.02
2019-05-22T17:49:59.307Z,99945.41
2019-05-22T17:52:29.357Z,99944.97
2019-05-22T17:54:59.428Z,99943.19
2019-05-22T17:57:29.573Z,99956.07
2019-05-22T17:59:59.251Z,99957.65
2019-05-22T18:02:37.623Z,99957.49
2019-05-22T18:05:07.843Z,99959.47
2019-05-22T18:07:38.659Z,99964.42
2019-05-22T18:10:09.312Z,99961.28
2019-05-22T18:12:39.182Z,99969.94
2019-05-22T18:15:09.778Z,99973.86
2019-05-22T18:17:40.605Z,99969.41
2019-05-22T18:20:12.548Z,99973.17
2019-05-22T18:22:42.512Z,99980.47
2019-05-22T18:25:13.047Z,99975.37
2019-05-22T18:27:42.542Z,99977.17
2019-05-22T18:30:12.657Z,99982.02
2019-05-22T18:32:42.816Z,99979.79
2019-05-22T18:35:14.611Z,99984.66
2019-05-22T18:37:44.056Z,99985.85
2019-05-22T18:40:15.158Z,99991.54
2019-05-22T18:42:44.813Z,99990.86
2019-05-22T18:45:14.412Z,99982.93
2019-05-22T18:47:44.159Z,99992.87
2019-05-22T18:50:14.646Z,99994.39
2019-05-22T18:52:47.405Z,99994.34
2019-05-22T18:55:17.273Z,99996.66
2019-05-22T18:57:46.979Z,100002.66
2019-05-22T19:00:19.554Z,100004.89
2019-05-22T19:02:48.827Z,100003.17
2019-05-22T19:05:21.540Z,100009.63
2019-05-22T19:07:51.506Z,100006.44
2019-05-22T19:10:21.255Z,100000.69
2019-05-22T19:12:50.539Z,100004.13
2019-05-22T19:15:20.704Z,100003.47
2019-05-22T19:17:50.207Z,99998.05
2019-05-22T19:20:19.607Z,99998.66
2019-05-22T19:22:59.493Z,99995.44
2019-05-22T19:25:20.556Z,99998.64
2019-05-22T19:27:50.084Z,100005.94
2019-05-22T19:30:20.638Z,100006.42
2019-05-22T19:32:51.168Z,100006.67
2019-05-22T19:35:20.731Z,100007.55
2019-05-22T19:37:50.186Z,100001.77
2019-05-22T19:40:19.964Z,100002.84
2019-05-22T19:42:49.748Z,100008.78
2019-05-22T19:45:20.772Z,100010.78
2019-05-22T19:47:51.940Z,100014.70
2019-05-22T19:50:23.875Z,100020.64
2019-05-22T19:52:57.626Z,100024.06
2019-05-22T19:55:30.004Z,100022.63
2019-05-22T19:57:59.832Z,100022.84
2019-05-22T20:00:30.419Z,100029.00
2019-05-22T20:02:59.941Z,100029.34
2019-05-22T20:05:29.780Z,100029.92
2019-05-22T20:07:59.212Z,100024.78
2019-05-22T20:10:28.412Z,100032.56
2019-05-22T20:12:57.724Z,100032.56
2019-05-22T20:15:27.936Z,100027.45
2019-05-22T20:17:57.360Z,100027.45
2019-05-22T20:20:27.224Z,100023.88
2019-05-22T20:22:58.175Z,100023.88
2019-05-22T20:25:28.194Z,100023.83
2019-05-22T20:27:59.584Z,100030.44
2019-05-22T20:30:29.656Z,100024.80
2019-05-22T20:32:58.889Z,100030.23
2019-05-22T20:35:29.599Z,100032.94
2019-05-22T20:38:00.537Z,100034.30
2019-05-22T20:40:30.197Z,100042.12
2019-05-22T20:42:59.954Z,100044.34
2019-05-22T20:45:29.507Z,100046.09
2019-05-22T20:48:14.495Z,100048.38
2019-05-22T20:50:44.093Z,100049.97
2019-05-22T20:53:16.151Z,100051.09
2019-05-22T20:55:46.536Z,100053.96
2019-05-22T20:58:17.668Z,100055.77
2019-05-22T21:00:49.251Z,100049.88
2019-05-22T21:03:18.812Z,100055.86
2019-05-22T21:05:49.134Z,100058.07
2019-05-22T21:08:20.147Z,100057.49
2019-05-22T21:10:50.101Z,100057.37
2019-05-22T21:13:20.197Z,100061.55
2019-05-22T21:15:52.225Z,100059.50
2019-05-22T21:18:25.798Z,100057.33
2019-05-22T21:20:56.122Z,100058.43
2019-05-22T21:23:25.635Z,100056.58
2019-05-22T21:25:55.268Z,100053.70
2019-05-22T21:28:24.538Z,100059.77
2019-05-22T21:30:55.469Z,100053.35
2019-05-22T21:33:25.291Z,100054.59
2019-05-22T21:35:54.862Z,100057.77
2019-05-22T21:38:24.675Z,100054.36
2019-05-22T21:40:56.360Z,100055.62
2019-05-22T21:43:25.774Z,100052.95
2019-05-22T21:45:54.937Z,100054.13
2019-05-22T21:48:24.868Z,100047.18
2019-05-22T21:50:54.153Z,100042.59
2019-05-22T21:53:23.295Z,100038.44
2019-05-22T21:56:04.025Z,100040.14
2019-05-22T21:58:24.497Z,100042.07
2019-05-22T22:01:28.072Z,100048.27
2019-05-22T22:04:18.058Z,100048.27
2019-05-22T22:06:47.837Z,100044.57
2019-05-22T22:09:18.417Z,100044.61
2019-05-22T22:11:48.410Z,100049.89
2019-05-22T22:14:18.041Z,100055.09
2019-05-22T22:16:47.661Z,100056.59
2019-05-22T22:19:18.377Z,100063.72
2019-05-22T22:21:47.932Z,100060.39
2019-05-22T22:24:17.437Z,100062.40
2019-05-22T22:26:46.836Z,100058.89
2019-05-22T22:29:16.275Z,100067.59
2019-05-22T22:31:46.886Z,100066.48
2019-05-22T22:34:27.590Z,100068.25
2019-05-22T22:36:57.433Z,100070.13
2019-05-22T22:39:27.658Z,100071.66
2019-05-22T22:41:59.407Z,100069.19
2019-05-22T22:44:29.684Z,100067.88
2019-05-22T22:47:05.630Z,100066.51
2019-05-22T22:49:35.506Z,100067.34
2019-05-22T22:52:08.520Z,100066.97
2019-05-22T22:54:38.567Z,100072.99
2019-05-22T22:57:09.453Z,100075.66
2019-05-22T22:59:38.620Z,100075.66
2019-05-22T23:02:12.053Z,100072.88
2019-05-22T23:04:42.434Z,100073.98
2019-05-22T23:07:13.305Z,100074.06
2019-05-22T23:09:44.104Z,100079.25
2019-05-22T23:12:13.952Z,100074.63
2019-05-22T23:14:50.644Z,100079.69
2019-05-22T23:17:20.366Z,100080.97
2019-05-22T23:19:47.832Z,100075.67
2019-05-22T23:22:27.256Z,100082.25
2019-05-22T23:24:57.320Z,100076.70
2019-05-22T23:27:29.123Z,100080.33
2019-05-22T23:29:59.778Z,100076.89
2019-05-22T23:32:29.402Z,100074.30
2019-05-22T23:35:00.740Z,100076.70
2019-05-22T23:37:32.308Z,100078.38
2019-05-22T23:40:02.690Z,100084.09
2019-05-22T23:42:39.564Z,100084.46
2019-05-22T23:45:12.866Z,100079.67
2019-05-22T23:47:58.903Z,100076.56
2019-05-22T23:50:28.423Z,100079.03
2019-05-22T23:52:58.387Z,100076.26
2019-05-22T23:55:27.578Z,100073.63
2019-05-22T23:57:56.730Z,100080.84
